Wetterdaten: Dienstag, 13.10.2015
Datum Zeit Temp. A. Feuchte A. Luftdruck Regen Wind Richtung Richtung Sonnenschein ET UV Solar Taupunkt Windchill Windben Empfang
13.10.2015 00:02 2,3 C 84 % 1015,3 hPa 0,0 l/m 13,0 km/h (3 Bft) O 79 0 min 0,000 mm 0,0 UV-I 0 W/m -0,1 C -3,0 C 15,8 km/h (3 Bft) 0,00 %
13.10.2015 00:07 2,2 C 84 % 1015,5 hPa 0,0 l/m 10,8 km/h (2 Bft) O 87 0 min 0,000 mm 0,0 UV-I 0 W/m -0,2 C -1,6 C 15,8 km/h (3 Bft) 0,00 %
13.10.2015 00:12 2,1 C 84 % 1015,4 hPa 0,0 l/m 15,8 km/h (3 Bft) O-NO 75 0 min 0,000 mm 0,0 UV-I 0 W/m -0,3 C -4,9 C 19,8 km/h (3 Bft) 0,00 %
13.10.2015 00:17 2,0 C 80 % 1015,5 hPa 0,0 l/m 9,7 km/h (2 Bft) O 87 0 min 0,000 mm 0,0 UV-I 0 W/m -1,1 C -1,0 C 11,9 km/h (2 Bft) 0,00 %
13.10.2015 00:22 1,9 C 80 % 1015,5 hPa 0,0 l/m 10,8 km/h (2 Bft) O 82 0 min 0,000 mm 0,0 UV-I 0 W/m -1,2 C -2,0 C 19,8 km/h (3 Bft) 0,00 %
13.10.2015 00:27 1,9 C 80 % 1015,5 hPa 0,0 l/m 14,0 km/h (3 Bft) O 90 0 min 0,000 mm 0,0 UV-I 0 W/m -1,2 C -4,1 C 15,8 km/h (3 Bft) 0,00 %
13.10.2015 00:32 1,8 C 80 % 1015,5 hPa 0,0 l/m 10,4 km/h (2 Bft) O 85 0 min 0,000 mm 0,0 UV-I 0 W/m -1,3 C -1,8 C 15,8 km/h (3 Bft) 0,00 %
13.10.2015 00:37 1,8 C 80 % 1015,4 hPa 0,0 l/m 11,5 km/h (2 Bft) O 92 0 min 0,000 mm 0,0 UV-I 0 W/m -1,3 C -2,6 C 15,8 km/h (3 Bft) 0,00 %
13.10.2015 00:42 1,7 C 80 % 1015,5 hPa 0,0 l/m 6,5 km/h (2 Bft) O-SO 112 0 min 0,000 mm 0,0 UV-I 0 W/m -1,4 C 1,6 C 11,9 km/h (2 Bft) 0,00 %
13.10.2015 00:47 1,6 C 80 % 1015,5 hPa 0,0 l/m 10,4 km/h (2 Bft) O 87 0 min 0,000 mm 0,0 UV-I 0 W/m -1,5 C -2,0 C 11,9 km/h (2 Bft) 0,00 %
13.10.2015 00:52 1,5 C 80 % 1015,3 hPa 0,0 l/m 6,8 km/h (2 Bft) O 91 0 min 0,000 mm 0,0 UV-I 0 W/m -1,6 C 1,1 C 11,9 km/h (2 Bft) 0,00 %
13.10.2015 00:57 1,5 C 80 % 1015,6 hPa 0,0 l/m 3,2 km/h (1 Bft) O 87 0 min 0,000 mm 0,0 UV-I 0 W/m -1,6 C 1,5 C 7,9 km/h (2 Bft) 0,00 %
13.10.2015 01:02 1,4 C 80 % 1015,4 hPa 0,0 l/m 13,0 km/h (3 Bft) O 97 0 min 0,000 mm 0,0 UV-I 0 W/m -1,7 C -4,1 C 24,1 km/h (4 Bft) 0,00 %
13.10.2015 01:07 1,4 C 80 % 1015,5 hPa 0,0 l/m 12,2 km/h (2 Bft) O-SO 106 0 min 0,000 mm 0,0 UV-I 0 W/m -1,7 C -3,5 C 15,8 km/h (3 Bft) 0,00 %
13.10.2015 01:12 1,3 C 80 % 1015,6 hPa 0,0 l/m 10,4 km/h (2 Bft) O-SO 120 0 min 0,000 mm 0,0 UV-I 0 W/m -1,8 C -2,3 C 15,8 km/h (3 Bft) 0,00 %
13.10.2015 01:17 1,3 C 80 % 1015,5 hPa 0,0 l/m 10,4 km/h (2 Bft) O 94 0 min 0,000 mm 0,0 UV-I 0 W/m -1,8 C -2,3 C 11,9 km/h (2 Bft) 0,00 %
13.10.2015 01:22 1,3 C 80 % 1015,5 hPa 0,0 l/m 15,5 km/h (3 Bft) O 87 0 min 0,000 mm 0,0 UV-I 0 W/m -1,8 C -5,7 C 19,8 km/h (3 Bft) 0,00 %
13.10.2015 01:27 1,3 C 80 % 1015,5 hPa 0,0 l/m 0,4 km/h (0 Bft) NO 52 0 min 0,000 mm 0,0 UV-I 0 W/m -1,8 C 1,3 C 4,0 km/h (1 Bft) 0,00 %
13.10.2015 01:32 1,3 C 79 % 1015,7 hPa 0,0 l/m 6,5 km/h (2 Bft) O-SO 116 0 min 0,000 mm 0,0 UV-I 0 W/m -1,9 C 1,2 C 7,9 km/h (2 Bft) 0,00 %
13.10.2015 01:37 1,3 C 79 % 1015,7 hPa 0,0 l/m 4,3 km/h (1 Bft) O 84 0 min 0,000 mm 0,0 UV-I 0 W/m -1,9 C 1,3 C 7,9 km/h (2 Bft) 0,00 %
13.10.2015 01:42 1,2 C 79 % 1015,7 hPa 0,0 l/m 4,0 km/h (1 Bft) SO 125 0 min 0,000 mm 0,0 UV-I 0 W/m -2,0 C 1,2 C 7,9 km/h (2 Bft) 0,00 %
13.10.2015 01:47 1,2 C 79 % 1015,8 hPa 0,0 l/m 4,3 km/h (1 Bft) O 93 0 min 0,000 mm 0,0 UV-I 0 W/m -2,0 C 1,2 C 7,9 km/h (2 Bft) 0,00 %
13.10.2015 01:52 1,1 C 79 % 1015,8 hPa 0,0 l/m 18,0 km/h (3 Bft) O-SO 102 0 min 0,000 mm 0,0 UV-I 0 W/m -2,1 C -7,3 C 24,1 km/h (4 Bft) 0,00 %
13.10.2015 01:57 1,1 C 79 % 1015,9 hPa 0,0 l/m 2,2 km/h (1 Bft) O-NO 65 0 min 0,000 mm 0,0 UV-I 0 W/m -2,1 C 1,1 C 4,0 km/h (1 Bft) 0,00 %
13.10.2015 02:02 1,0 C 79 % 1015,9 hPa 0,0 l/m 4,0 km/h (1 Bft) NO 52 0 min 0,000 mm 0,0 UV-I 0 W/m -2,2 C 1,0 C 7,9 km/h (2 Bft) 0,00 %
13.10.2015 02:07 1,0 C 79 % 1015,9 hPa 0,0 l/m 14,0 km/h (3 Bft) O 86 0 min 0,000 mm 0,0 UV-I 0 W/m -2,2 C -5,2 C 19,8 km/h (3 Bft) 0,00 %
13.10.2015 02:12 1,0 C 79 % 1015,7 hPa 0,0 l/m 9,0 km/h (2 Bft) SO 145 0 min 0,000 mm 0,0 UV-I 0 W/m -2,2 C -1,5 C 15,8 km/h (3 Bft) 0,00 %
13.10.2015 02:17 1,0 C 79 % 1015,7 hPa 0,0 l/m 16,6 km/h (3 Bft) O-SO 112 0 min 0,000 mm 0,0 UV-I 0 W/m -2,2 C -6,7 C 28,1 km/h (4 Bft) 0,00 %
13.10.2015 02:22 0,9 C 80 % 1015,8 hPa 0,0 l/m 11,5 km/h (2 Bft) O 88 0 min 0,000 mm 0,0 UV-I 0 W/m -2,2 C -3,6 C 15,8 km/h (3 Bft) 0,00 %
13.10.2015 02:27 0,9 C 80 % 1016,0 hPa 0,0 l/m 2,2 km/h (1 Bft) O-NO 69 0 min 0,000 mm 0,0 UV-I 0 W/m -2,2 C 0,9 C 4,0 km/h (1 Bft) 0,00 %
13.10.2015 02:32 0,9 C 81 % 1015,9 hPa 0,0 l/m 9,7 km/h (2 Bft) O 90 0 min 0,000 mm 0,0 UV-I 0 W/m -2,0 C -2,2 C 15,8 km/h (3 Bft) 0,00 %
13.10.2015 02:37 0,9 C 81 % 1015,8 hPa 0,0 l/m 2,9 km/h (1 Bft) O-SO 104 0 min 0,000 mm 0,0 UV-I 0 W/m -2,0 C 0,9 C 4,0 km/h (1 Bft) 0,00 %
13.10.2015 02:42 0,9 C 81 % 1015,9 hPa 0,0 l/m 5,8 km/h (2 Bft) O-SO 104 0 min 0,000 mm 0,0 UV-I 0 W/m -2,0 C 0,9 C 7,9 km/h (2 Bft) 0,00 %
13.10.2015 02:47 0,9 C 81 % 1015,8 hPa 0,0 l/m 8,3 km/h (2 Bft) O-NO 73 0 min 0,000 mm 0,0 UV-I 0 W/m -2,0 C -1,0 C 11,9 km/h (2 Bft) 0,00 %
13.10.2015 02:52 0,9 C 81 % 1016,0 hPa 0,0 l/m 10,4 km/h (2 Bft) O 83 0 min 0,000 mm 0,0 UV-I 0 W/m -2,0 C -2,8 C 11,9 km/h (2 Bft) 0,00 %
13.10.2015 02:57 0,9 C 80 % 1016,0 hPa 0,0 l/m 18,0 km/h (3 Bft) O 92 0 min 0,000 mm 0,0 UV-I 0 W/m -2,2 C -7,5 C 19,8 km/h (3 Bft) 0,00 %
13.10.2015 03:02 0,9 C 79 % 1015,8 hPa 0,0 l/m 4,7 km/h (1 Bft) N-NO 23 0 min 0,000 mm 0,0 UV-I 0 W/m -2,3 C 0,9 C 7,9 km/h (2 Bft) 0,00 %
13.10.2015 03:07 0,9 C 80 % 1015,5 hPa 0,0 l/m 13,3 km/h (3 Bft) O 95 0 min 0,000 mm 0,0 UV-I 0 W/m -2,2 C -4,8 C 15,8 km/h (3 Bft) 0,00 %
13.10.2015 03:12 0,9 C 80 % 1015,4 hPa 0,0 l/m 12,2 km/h (2 Bft) O-NO 78 0 min 0,000 mm 0,0 UV-I 0 W/m -2,2 C -4,1 C 15,8 km/h (3 Bft) 0,00 %
13.10.2015 03:17 0,9 C 80 % 1015,5 hPa 0,0 l/m 8,3 km/h (2 Bft) O 94 0 min 0,000 mm 0,0 UV-I 0 W/m -2,2 C -1,0 C 11,9 km/h (2 Bft) 0,00 %
13.10.2015 03:22 0,9 C 80 % 1015,4 hPa 0,0 l/m 6,5 km/h (2 Bft) O-SO 117 0 min 0,000 mm 0,0 UV-I 0 W/m -2,2 C 0,8 C 11,9 km/h (2 Bft) 0,00 %
13.10.2015 03:27 0,9 C 80 % 1015,5 hPa 0,0 l/m 1,4 km/h (1 Bft) O 81 0 min 0,000 mm 0,0 UV-I 0 W/m -2,2 C 0,9 C 4,0 km/h (1 Bft) 0,00 %
13.10.2015 03:32 0,9 C 80 % 1015,5 hPa 0,0 l/m 10,4 km/h (2 Bft) O-NO 75 0 min 0,000 mm 0,0 UV-I 0 W/m -2,2 C -2,8 C 11,9 km/h (2 Bft) 0,00 %
13.10.2015 03:37 0,9 C 80 % 1015,4 hPa 0,0 l/m 8,3 km/h (2 Bft) O-SO 115 0 min 0,000 mm 0,0 UV-I 0 W/m -2,2 C -1,0 C 11,9 km/h (2 Bft) 0,00 %
13.10.2015 03:42 0,9 C 79 % 1015,5 hPa 0,0 l/m 10,4 km/h (2 Bft) O-SO 115 0 min 0,000 mm 0,0 UV-I 0 W/m -2,3 C -2,8 C 15,8 km/h (3 Bft) 0,00 %
13.10.2015 03:47 0,9 C 79 % 1015,6 hPa 0,0 l/m 11,9 km/h (2 Bft) O-SO 103 0 min 0,000 mm 0,0 UV-I 0 W/m -2,3 C -3,9 C 15,8 km/h (3 Bft) 0,00 %
13.10.2015 03:52 1,0 C 78 % 1015,7 hPa 0,0 l/m 5,4 km/h (1 Bft) O-SO 113 0 min 0,000 mm 0,0 UV-I 0 W/m -2,4 C 1,0 C 7,9 km/h (2 Bft) 0,00 %
13.10.2015 03:57 1,0 C 78 % 1015,4 hPa 0,0 l/m 5,4 km/h (1 Bft) O 94 0 min 0,000 mm 0,0 UV-I 0 W/m -2,4 C 1,0 C 7,9 km/h (2 Bft) 0,00 %
13.10.2015 04:02 1,0 C 79 % 1015,6 hPa 0,0 l/m 5,4 km/h (1 Bft) O 92 0 min 0,000 mm 0,0 UV-I 0 W/m -2,2 C 1,0 C 7,9 km/h (2 Bft) 0,00 %
13.10.2015 04:07 0,9 C 80 % 1015,8 hPa 0,0 l/m 4,0 km/h (1 Bft) O-SO 119 0 min 0,000 mm 0,0 UV-I 0 W/m -2,2 C 0,9 C 7,9 km/h (2 Bft) 0,00 %
13.10.2015 04:12 0,9 C 80 % 1015,6 hPa 0,0 l/m 7,9 km/h (2 Bft) O-NO 58 0 min 0,000 mm 0,0 UV-I 0 W/m -2,2 C -0,6 C 11,9 km/h (2 Bft) 0,00 %
13.10.2015 04:17 0,8 C 80 % 1015,4 hPa 0,0 l/m 7,9 km/h (2 Bft) SO 135 0 min 0,000 mm 0,0 UV-I 0 W/m -2,2 C -0,7 C 11,9 km/h (2 Bft) 0,00 %
13.10.2015 04:22 0,8 C 80 % 1015,5 hPa 0,0 l/m 6,8 km/h (2 Bft) O-SO 104 0 min 0,000 mm 0,0 UV-I 0 W/m -2,2 C 0,4 C 11,9 km/h (2 Bft) 0,00 %
13.10.2015 04:27 0,7 C 81 % 1015,4 hPa 0,0 l/m 4,3 km/h (1 Bft) SO 127 0 min 0,000 mm 0,0 UV-I 0 W/m -2,2 C 0,7 C 7,9 km/h (2 Bft) 0,00 %
13.10.2015 04:32 0,7 C 81 % 1015,4 hPa 0,0 l/m 5,4 km/h (1 Bft) O 95 0 min 0,000 mm 0,0 UV-I 0 W/m -2,2 C 0,7 C 7,9 km/h (2 Bft) 0,00 %
13.10.2015 04:37 0,7 C 81 % 1015,1 hPa 0,0 l/m 6,5 km/h (2 Bft) O 79 0 min 0,000 mm 0,0 UV-I 0 W/m -2,2 C 0,6 C 7,9 km/h (2 Bft) 0,00 %
13.10.2015 04:42 0,7 C 81 % 1015,2 hPa 0,0 l/m 1,4 km/h (1 Bft) O 96 0 min 0,000 mm 0,0 UV-I 0 W/m -2,2 C 0,7 C 4,0 km/h (1 Bft) 0,00 %
13.10.2015 04:47 0,6 C 81 % 1015,6 hPa 0,0 l/m 4,0 km/h (1 Bft) O 86 0 min 0,000 mm 0,0 UV-I 0 W/m -2,3 C 0,6 C 11,9 km/h (2 Bft) 0,00 %
13.10.2015 04:52 0,6 C 82 % 1015,5 hPa 0,0 l/m 5,4 km/h (1 Bft) O-NO 63 0 min 0,000 mm 0,0 UV-I 0 W/m -2,1 C 0,6 C 7,9 km/h (2 Bft) 0,00 %
13.10.2015 04:57 0,6 C 82 % 1015,4 hPa 0,0 l/m 2,9 km/h (1 Bft) NO 46 0 min 0,000 mm 0,0 UV-I 0 W/m -2,1 C 0,6 C 7,9 km/h (2 Bft) 0,00 %
13.10.2015 05:02 0,6 C 82 % 1015,3 hPa 0,0 l/m 6,8 km/h (2 Bft) O-NO 76 0 min 0,000 mm 0,0 UV-I 0 W/m -2,1 C 0,2 C 7,9 km/h (2 Bft) 0,00 %
13.10.2015 05:07 0,6 C 82 % 1015,3 hPa 0,0 l/m 9,4 km/h (2 Bft) O 81 0 min 0,000 mm 0,0 UV-I 0 W/m -2,1 C -2,3 C 11,9 km/h (2 Bft) 0,00 %
13.10.2015 05:12 0,5 C 82 % 1015,4 hPa 0,0 l/m 3,2 km/h (1 Bft) O 80 0 min 0,000 mm 0,0 UV-I 0 W/m -2,2 C 0,5 C 7,9 km/h (2 Bft) 0,00 %
13.10.2015 05:17 0,5 C 82 % 1015,5 hPa 0,0 l/m 0,7 km/h (0 Bft) O-SO 122 0 min 0,000 mm 0,0 UV-I 0 W/m -2,2 C 0,5 C 4,0 km/h (1 Bft) 0,00 %
13.10.2015 05:22 0,5 C 83 % 1015,1 hPa 0,0 l/m 9,4 km/h (2 Bft) O 88 0 min 0,000 mm 0,0 UV-I 0 W/m -2,0 C -2,4 C 11,9 km/h (2 Bft) 0,00 %
13.10.2015 05:27 0,4 C 83 % 1015,5 hPa 0,0 l/m 2,9 km/h (1 Bft) O-NO 61 0 min 0,000 mm 0,0 UV-I 0 W/m -2,1 C 0,4 C 4,0 km/h (1 Bft) 0,00 %
13.10.2015 05:32 0,4 C 83 % 1015,6 hPa 0,0 l/m 7,9 km/h (2 Bft) SO 124 0 min 0,000 mm 0,0 UV-I 0 W/m -2,1 C -1,1 C 11,9 km/h (2 Bft) 0,00 %
13.10.2015 05:37 0,4 C 84 % 1015,5 hPa 0,0 l/m 10,4 km/h (2 Bft) O-SO 118 0 min 0,000 mm 0,0 UV-I 0 W/m -2,0 C -3,3 C 11,9 km/h (2 Bft) 0,00 %
13.10.2015 05:42 0,4 C 84 % 1015,4 hPa 0,0 l/m 7,2 km/h (2 Bft) O 79 0 min 0,000 mm 0,0 UV-I 0 W/m -2,0 C -0,4 C 7,9 km/h (2 Bft) 0,00 %
13.10.2015 05:47 0,4 C 85 % 1015,7 hPa 0,0 l/m 2,2 km/h (1 Bft) O-NO 72 0 min 0,000 mm 0,0 UV-I 0 W/m -1,8 C 0,4 C 4,0 km/h (1 Bft) 0,00 %
13.10.2015 05:52 0,4 C 85 % 1015,7 hPa 0,0 l/m 2,2 km/h (1 Bft) NO 50 0 min 0,000 mm 0,0 UV-I 0 W/m -1,8 C 0,4 C 7,9 km/h (2 Bft) 0,00 %
13.10.2015 05:57 0,4 C 85 % 1015,6 hPa 0,0 l/m 9,0 km/h (2 Bft) O 88 0 min 0,000 mm 0,0 UV-I 0 W/m -1,8 C -2,2 C 11,9 km/h (2 Bft) 0,00 %
13.10.2015 06:02 0,5 C 85 % 1015,4 hPa 0,0 l/m 4,0 km/h (1 Bft) O-SO 118 0 min 0,000 mm 0,0 UV-I 0 W/m -1,7 C 0,5 C 7,9 km/h (2 Bft) 0,00 %
13.10.2015 06:07 0,5 C 85 % 1015,3 hPa 0,0 l/m 5,4 km/h (1 Bft) O-NO 78 0 min 0,000 mm 0,0 UV-I 0 W/m -1,7 C 0,5 C 11,9 km/h (2 Bft) 0,00 %
13.10.2015 06:12 0,5 C 85 % 1015,3 hPa 0,0 l/m 10,4 km/h (2 Bft) O 94 0 min 0,000 mm 0,0 UV-I 0 W/m -1,7 C -3,2 C 15,8 km/h (3 Bft) 0,00 %
13.10.2015 06:17 0,5 C 85 % 1015,3 hPa 0,0 l/m 12,2 km/h (2 Bft) O 91 0 min 0,000 mm 0,0 UV-I 0 W/m -1,7 C -4,6 C 15,8 km/h (3 Bft) 0,00 %
13.10.2015 06:22 0,5 C 85 % 1015,1 hPa 0,0 l/m 0,4 km/h (0 Bft) O-SO 116 0 min 0,000 mm 0,0 UV-I 0 W/m -1,7 C 0,5 C 4,0 km/h (1 Bft) 0,00 %
13.10.2015 06:27 0,6 C 85 % 1015,3 hPa 0,0 l/m 6,5 km/h (2 Bft) N-NO 22 0 min 0,000 mm 0,0 UV-I 0 W/m -1,6 C 0,5 C 11,9 km/h (2 Bft) 0,00 %
13.10.2015 06:32 0,6 C 85 % 1015,3 hPa 0,0 l/m 11,5 km/h (2 Bft) O-NO 58 0 min 0,000 mm 0,0 UV-I 0 W/m -1,6 C -3,9 C 15,8 km/h (3 Bft) 0,00 %
13.10.2015 06:37 0,6 C 85 % 1015,4 hPa 0,0 l/m 6,8 km/h (2 Bft) SO 136 0 min 0,000 mm 0,0 UV-I 0 W/m -1,6 C 0,2 C 11,9 km/h (2 Bft) 0,00 %
13.10.2015 06:42 0,6 C 85 % 1015,6 hPa 0,0 l/m 4,0 km/h (1 Bft) O-NO 76 0 min 0,000 mm 0,0 UV-I 0 W/m -1,6 C 0,6 C 7,9 km/h (2 Bft) 0,00 %
13.10.2015 06:47 0,7 C 85 % 1015,4 hPa 0,0 l/m 8,3 km/h (2 Bft) O 100 0 min 0,000 mm 0,0 UV-I 0 W/m -1,5 C -1,2 C 11,9 km/h (2 Bft) 0,00 %
13.10.2015 06:52 0,7 C 85 % 1015,3 hPa 0,0 l/m 5,4 km/h (1 Bft) S 171 0 min 0,000 mm 0,0 UV-I 0 W/m -1,5 C 0,7 C 7,9 km/h (2 Bft) 0,00 %
13.10.2015 06:57 0,7 C 85 % 1015,3 hPa 0,0 l/m 9,0 km/h (2 Bft) O-SO 110 0 min 0,000 mm 0,0 UV-I 0 W/m -1,5 C -1,8 C 11,9 km/h (2 Bft) 0,00 %
13.10.2015 07:02 0,7 C 85 % 1015,2 hPa 0,0 l/m 0,7 km/h (0 Bft) O-SO 119 0 min 0,000 mm 0,0 UV-I 0 W/m -1,5 C 0,7 C 4,0 km/h (1 Bft) 0,00 %
13.10.2015 07:07 0,7 C 85 % 1015,0 hPa 0,0 l/m 12,2 km/h (2 Bft) O 90 0 min 0,000 mm 0,0 UV-I 0 W/m -1,5 C -4,3 C 15,8 km/h (3 Bft) 0,00 %
13.10.2015 07:12 0,7 C 86 % 1015,3 hPa 0,0 l/m 0,7 km/h (0 Bft) O-NO 73 0 min 0,000 mm 0,0 UV-I 0 W/m -1,4 C 0,7 C 4,0 km/h (1 Bft) 0,00 %
13.10.2015 07:17 0,7 C 86 % 1015,3 hPa 0,0 l/m 1,4 km/h (1 Bft) O 79 0 min 0,000 mm 0,0 UV-I 0 W/m -1,4 C 0,7 C 4,0 km/h (1 Bft) 0,00 %
13.10.2015 07:22 0,7 C 86 % 1015,4 hPa 0,0 l/m 10,4 km/h (2 Bft) O 90 0 min 0,000 mm 0,0 UV-I 0 W/m -1,4 C -3,0 C 11,9 km/h (2 Bft) 0,00 %
13.10.2015 07:27 0,7 C 86 % 1015,4 hPa 0,0 l/m 7,9 km/h (2 Bft) O 96 0 min 0,000 mm 0,0 UV-I 0 W/m -1,4 C -0,8 C 11,9 km/h (2 Bft) 0,00 %
13.10.2015 07:32 0,7 C 86 % 1015,3 hPa 0,0 l/m 4,0 km/h (1 Bft) O-SO 112 0 min 0,000 mm 0,0 UV-I 0 W/m -1,4 C 0,7 C 7,9 km/h (2 Bft) 0,00 %
13.10.2015 07:37 0,7 C 86 % 1015,3 hPa 0,0 l/m 4,0 km/h (1 Bft) O 86 0 min 0,000 mm 0,0 UV-I 0 W/m -1,4 C 0,7 C 11,9 km/h (2 Bft) 0,00 %
13.10.2015 07:42 0,7 C 86 % 1015,3 hPa 0,0 l/m 10,8 km/h (2 Bft) O 80 0 min 0,000 mm 0,0 UV-I 0 W/m -1,4 C -3,3 C 15,8 km/h (3 Bft) 0,00 %
13.10.2015 07:47 0,7 C 86 % 1015,3 hPa 0,0 l/m 0,4 km/h (0 Bft) S 172 0 min 0,000 mm 0,0 UV-I 0 W/m -1,4 C 0,7 C 4,0 km/h (1 Bft) 0,00 %
13.10.2015 07:52 0,7 C 86 % 1015,2 hPa 0,0 l/m 4,7 km/h (1 Bft) O-SO 112 0 min 0,000 mm 0,0 UV-I 3 W/m -1,4 C 0,7 C 7,9 km/h (2 Bft) 0,00 %
13.10.2015 07:57 0,7 C 86 % 1015,3 hPa 0,0 l/m 6,5 km/h (2 Bft) O 83 0 min 0,000 mm 0,0 UV-I 5 W/m -1,4 C 0,6 C 11,9 km/h (2 Bft) 0,00 %
13.10.2015 08:02 0,7 C 86 % 1015,3 hPa 0,0 l/m 0,7 km/h (0 Bft) O 84 0 min 0,000 mm 0,0 UV-I 8 W/m -1,4 C 0,7 C 4,0 km/h (1 Bft) 0,00 %
13.10.2015 08:07 0,7 C 86 % 1015,3 hPa 0,0 l/m 3,2 km/h (1 Bft) NO 52 0 min 0,000 mm 0,0 UV-I 9 W/m -1,4 C 0,7 C 7,9 km/h (2 Bft) 0,00 %
13.10.2015 08:12 0,7 C 86 % 1015,4 hPa 0,0 l/m 8,3 km/h (2 Bft) O 83 0 min 0,000 mm 0,0 UV-I 11 W/m -1,4 C -1,2 C 11,9 km/h (2 Bft) 0,00 %
13.10.2015 08:17 0,8 C 86 % 1015,4 hPa 0,0 l/m 1,4 km/h (1 Bft) O 87 0 min 0,000 mm 0,0 UV-I 18 W/m -1,3 C 0,8 C 7,9 km/h (2 Bft) 0,00 %
13.10.2015 08:22 0,8 C 86 % 1015,4 hPa 0,0 l/m 9,7 km/h (2 Bft) O 80 0 min 0,000 mm 0,0 UV-I 20 W/m -1,3 C -2,3 C 11,9 km/h (2 Bft) 0,00 %
13.10.2015 08:27 0,8 C 86 % 1015,4 hPa 0,0 l/m 4,3 km/h (1 Bft) O 88 0 min 0,000 mm 0,0 UV-I 22 W/m -1,3 C 0,8 C 11,9 km/h (2 Bft) 0,00 %
13.10.2015 08:32 0,8 C 86 % 1015,4 hPa 0,0 l/m 0,0 km/h (0 Bft) O 84 0 min 0,000 mm 0,0 UV-I 31 W/m -1,3 C 0,8 C 0,0 km/h (0 Bft) 0,00 %
13.10.2015 08:37 0,9 C 85 % 1015,7 hPa 0,0 l/m 10,4 km/h (2 Bft) O-SO 104 0 min 0,000 mm 0,0 UV-I 44 W/m -1,3 C -2,8 C 11,9 km/h (2 Bft) 0,00 %
13.10.2015 08:42 0,9 C 85 % 1015,5 hPa 0,0 l/m 7,2 km/h (2 Bft) O-SO 114 0 min 0,000 mm 0,0 UV-I 58 W/m -1,3 C 0,1 C 11,9 km/h (2 Bft) 0,00 %
13.10.2015 08:47 1,0 C 85 % 1015,5 hPa 0,0 l/m 1,8 km/h (1 Bft) O-NO 74 0 min 0,000 mm 0,0 UV-I 51 W/m -1,2 C 1,0 C 4,0 km/h (1 Bft) 0,00 %
13.10.2015 08:53 1,0 C 84 % 1015,8 hPa 0,0 l/m 2,9 km/h (1 Bft) SO 139 0 min 0,000 mm 0,0 UV-I 39 W/m -1,4 C 1,0 C 4,0 km/h (1 Bft) 0,00 %
13.10.2015 08:58 1,0 C 84 % 1015,6 hPa 0,0 l/m 2,2 km/h (1 Bft) O 89 0 min 0,000 mm 0,0 UV-I 55 W/m -1,4 C 1,0 C 4,0 km/h (1 Bft) 0,00 %
13.10.2015 09:03 1,0 C 84 % 1015,8 hPa 0,0 l/m 11,5 km/h (2 Bft) SO 143 0 min 0,000 mm 1,0 UV-I 71 W/m -1,4 C -3,5 C 15,8 km/h (3 Bft) 0,00 %
13.10.2015 09:08 1,1 C 84 % 1015,6 hPa 0,0 l/m 9,4 km/h (2 Bft) O 95 0 min 0,000 mm 1,0 UV-I 87 W/m -1,3 C -1,7 C 11,9 km/h (2 Bft) 0,00 %
13.10.2015 09:13 1,2 C 84 % 1015,7 hPa 0,0 l/m 6,5 km/h (2 Bft) O 83 0 min 0,000 mm 1,0 UV-I 100 W/m -1,2 C 1,1 C 11,9 km/h (2 Bft) 0,00 %
13.10.2015 09:18 1,3 C 83 % 1015,9 hPa 0,0 l/m 6,8 km/h (2 Bft) O 84 0 min 0,000 mm 0,0 UV-I 83 W/m -1,3 C 0,9 C 11,9 km/h (2 Bft) 0,00 %
13.10.2015 09:23 1,3 C 83 % 1016,1 hPa 0,0 l/m 9,4 km/h (2 Bft) O 90 0 min 0,000 mm 0,0 UV-I 76 W/m -1,3 C -1,5 C 11,9 km/h (2 Bft) 0,00 %
13.10.2015 09:28 1,3 C 83 % 1015,9 hPa 0,0 l/m 0,7 km/h (0 Bft) O 93 0 min 0,000 mm 0,0 UV-I 71 W/m -1,3 C 1,3 C 4,0 km/h (1 Bft) 0,00 %
13.10.2015 09:33 1,4 C 83 % 1016,0 hPa 0,0 l/m 7,2 km/h (2 Bft) O 84 0 min 0,000 mm 0,0 UV-I 79 W/m -1,2 C 0,6 C 11,9 km/h (2 Bft) 0,00 %
13.10.2015 09:38 1,4 C 83 % 1015,9 hPa 0,0 l/m 7,9 km/h (2 Bft) O 92 0 min 0,000 mm 1,0 UV-I 82 W/m -1,2 C -0,1 C 11,9 km/h (2 Bft) 0,00 %
13.10.2015 09:43 1,4 C 83 % 1015,6 hPa 0,0 l/m 5,8 km/h (2 Bft) O 86 0 min 0,000 mm 1,0 UV-I 116 W/m -1,2 C 1,4 C 7,9 km/h (2 Bft) 0,00 %
13.10.2015 09:48 1,5 C 83 % 1015,7 hPa 0,0 l/m 15,5 km/h (3 Bft) O 84 0 min 0,000 mm 1,0 UV-I 109 W/m -1,1 C -5,4 C 15,8 km/h (3 Bft) 0,00 %
13.10.2015 09:53 1,6 C 82 % 1015,3 hPa 0,0 l/m 14,4 km/h (3 Bft) O 89 0 min 0,000 mm 1,0 UV-I 131 W/m -1,1 C -4,7 C 15,8 km/h (3 Bft) 0,00 %
13.10.2015 09:58 1,7 C 82 % 1015,4 hPa 0,0 l/m 2,9 km/h (1 Bft) S-SO 166 0 min 0,000 mm 1,0 UV-I 158 W/m -1,0 C 1,7 C 7,9 km/h (2 Bft) 0,00 %
13.10.2015 10:03 1,8 C 86 % 1015,9 hPa 0,0 l/m 7,9 km/h (2 Bft) O 84 0 min 0,000 mm 1,0 UV-I 131 W/m -0,3 C 0,3 C 11,9 km/h (2 Bft) 0,00 %
13.10.2015 10:08 1,9 C 85 % 1015,6 hPa 0,0 l/m 5,4 km/h (1 Bft) O-SO 120 0 min 0,000 mm 1,0 UV-I 134 W/m -0,3 C 1,9 C 11,9 km/h (2 Bft) 0,00 %
13.10.2015 10:13 2,1 C 85 % 1015,8 hPa 0,0 l/m 5,4 km/h (1 Bft) O-SO 113 0 min 0,000 mm 1,0 UV-I 103 W/m -0,2 C 2,1 C 7,9 km/h (2 Bft) 0,00 %
13.10.2015 10:18 2,0 C 81 % 1015,7 hPa 0,0 l/m 2,9 km/h (1 Bft) O-SO 105 0 min 0,000 mm 1,0 UV-I 94 W/m -0,9 C 2,0 C 7,9 km/h (2 Bft) 0,00 %
13.10.2015 10:23 1,9 C 81 % 1015,6 hPa 0,0 l/m 6,5 km/h (2 Bft) O-NO 76 0 min 0,000 mm 1,0 UV-I 125 W/m -1,0 C 1,8 C 11,9 km/h (2 Bft) 0,00 %
13.10.2015 10:28 1,9 C 81 % 1015,3 hPa 0,0 l/m 7,9 km/h (2 Bft) O 97 0 min 0,000 mm 1,0 UV-I 142 W/m -1,0 C 0,4 C 11,9 km/h (2 Bft) 0,00 %
13.10.2015 10:33 1,9 C 81 % 1015,2 hPa 0,0 l/m 9,4 km/h (2 Bft) O 95 0 min 0,000 mm 1,0 UV-I 139 W/m -1,0 C -0,9 C 11,9 km/h (2 Bft) 0,00 %
13.10.2015 10:38 1,9 C 85 % 1015,4 hPa 0,0 l/m 0,0 km/h (0 Bft) O 79 0 min 0,000 mm 1,0 UV-I 132 W/m -0,3 C 1,9 C 0,0 km/h (0 Bft) 0,00 %
13.10.2015 10:43 2,0 C 85 % 1015,1 hPa 0,0 l/m 5,4 km/h (1 Bft) O 88 0 min 0,000 mm 1,0 UV-I 139 W/m -0,3 C 2,0 C 7,9 km/h (2 Bft) 0,00 %
13.10.2015 10:48 2,1 C 85 % 1015,2 hPa 0,0 l/m 4,7 km/h (1 Bft) O-NO 69 0 min 0,000 mm 1,0 UV-I 190 W/m -0,2 C 2,1 C 7,9 km/h (2 Bft) 0,00 %
13.10.2015 10:53 2,2 C 85 % 1015,2 hPa 0,0 l/m 1,4 km/h (1 Bft) SO 138 0 min 0,000 mm 1,0 UV-I 206 W/m -0,1 C 2,2 C 4,0 km/h (1 Bft) 0,00 %
13.10.2015 10:58 2,4 C 85 % 1015,1 hPa 0,0 l/m 8,3 km/h (2 Bft) O 95 0 min 0,000 mm 1,0 UV-I 246 W/m 0,1 C 0,6 C 11,9 km/h (2 Bft) 0,00 %
13.10.2015 11:03 2,7 C 85 % 1015,0 hPa 0,0 l/m 0,4 km/h (0 Bft) O-NO 61 0 min 0,000 mm 1,0 UV-I 246 W/m 0,4 C 2,7 C 4,0 km/h (1 Bft) 0,00 %
13.10.2015 11:08 2,8 C 84 % 1015,2 hPa 0,0 l/m 13,3 km/h (3 Bft) O-SO 113 0 min 0,000 mm 1,0 UV-I 197 W/m 0,4 C -2,6 C 19,8 km/h (3 Bft) 0,00 %
13.10.2015 11:13 2,7 C 84 % 1014,8 hPa 0,0 l/m 6,5 km/h (2 Bft) O 98 0 min 0,000 mm 1,0 UV-I 278 W/m 0,3 C 2,6 C 7,9 km/h (2 Bft) 0,00 %
13.10.2015 11:18 2,8 C 84 % 1014,9 hPa 0,0 l/m 7,9 km/h (2 Bft) O-NO 77 0 min 0,000 mm 1,0 UV-I 200 W/m 0,4 C 1,4 C 11,9 km/h (2 Bft) 0,00 %
13.10.2015 11:23 2,9 C 84 % 1014,7 hPa 0,0 l/m 7,9 km/h (2 Bft) NO 41 0 min 0,000 mm 1,0 UV-I 180 W/m 0,5 C 1,5 C 15,8 km/h (3 Bft) 0,00 %
13.10.2015 11:28 2,8 C 83 % 1014,8 hPa 0,0 l/m 9,0 km/h (2 Bft) O-SO 116 0 min 0,000 mm 1,0 UV-I 186 W/m 0,2 C 0,4 C 11,9 km/h (2 Bft) 0,00 %
13.10.2015 11:33 2,8 C 84 % 1014,8 hPa 0,0 l/m 4,7 km/h (1 Bft) O-SO 122 0 min 0,000 mm 1,0 UV-I 162 W/m 0,4 C 2,8 C 7,9 km/h (2 Bft) 0,00 %
13.10.2015 11:38 2,8 C 84 % 1014,7 hPa 0,0 l/m 5,4 km/h (1 Bft) O 88 0 min 0,000 mm 1,0 UV-I 182 W/m 0,4 C 2,8 C 7,9 km/h (2 Bft) 0,00 %
13.10.2015 11:43 2,8 C 82 % 1014,7 hPa 0,0 l/m 6,5 km/h (2 Bft) O-NO 64 0 min 0,000 mm 1,0 UV-I 182 W/m 0,0 C 2,7 C 7,9 km/h (2 Bft) 0,00 %
13.10.2015 11:48 3,0 C 82 % 1014,7 hPa 0,0 l/m 8,3 km/h (2 Bft) O 101 0 min 0,000 mm 1,0 UV-I 228 W/m 0,2 C 1,2 C 11,9 km/h (2 Bft) 0,00 %
13.10.2015 11:53 3,1 C 82 % 1014,3 hPa 0,0 l/m 0,4 km/h (0 Bft) O 93 0 min 0,000 mm 1,0 UV-I 244 W/m 0,3 C 3,1 C 4,0 km/h (1 Bft) 0,00 %
13.10.2015 11:58 3,3 C 82 % 1014,5 hPa 0,0 l/m 2,2 km/h (1 Bft) O-NO 77 0 min 0,000 mm 1,0 UV-I 208 W/m 0,5 C 3,3 C 7,9 km/h (2 Bft) 0,00 %
13.10.2015 12:03 3,4 C 82 % 1014,2 hPa 0,0 l/m 8,3 km/h (2 Bft) O 94 0 min 0,000 mm 1,0 UV-I 248 W/m 0,6 C 1,7 C 11,9 km/h (2 Bft) 0,00 %
13.10.2015 12:08 3,4 C 82 % 1014,3 hPa 0,0 l/m 3,2 km/h (1 Bft) O-NO 70 0 min 0,000 mm 1,0 UV-I 251 W/m 0,6 C 3,4 C 7,9 km/h (2 Bft) 0,00 %
13.10.2015 12:13 3,4 C 82 % 1014,2 hPa 0,0 l/m 0,7 km/h (0 Bft) O 85 0 min 0,000 mm 1,0 UV-I 217 W/m 0,6 C 3,4 C 4,0 km/h (1 Bft) 0,00 %
13.10.2015 12:18 3,5 C 82 % 1014,1 hPa 0,0 l/m 9,0 km/h (2 Bft) O 91 0 min 0,000 mm 1,0 UV-I 229 W/m 0,7 C 1,2 C 11,9 km/h (2 Bft) 0,00 %
13.10.2015 12:23 3,6 C 83 % 1014,2 hPa 0,0 l/m 0,4 km/h (0 Bft) O-NO 78 0 min 0,000 mm 1,0 UV-I 208 W/m 1,0 C 3,6 C 4,0 km/h (1 Bft) 0,00 %
13.10.2015 12:28 3,7 C 82 % 1014,1 hPa 0,0 l/m 9,4 km/h (2 Bft) O-SO 111 0 min 0,000 mm 1,0 UV-I 221 W/m 0,9 C 1,1 C 11,9 km/h (2 Bft) 0,00 %
13.10.2015 12:33 3,8 C 81 % 1014,1 hPa 0,0 l/m 5,8 km/h (2 Bft) O 86 0 min 0,000 mm 1,0 UV-I 225 W/m 0,8 C 3,8 C 11,9 km/h (2 Bft) 0,00 %
13.10.2015 12:38 3,8 C 81 % 1013,8 hPa 0,0 l/m 10,4 km/h (2 Bft) O 87 0 min 0,000 mm 1,0 UV-I 280 W/m 0,8 C 0,5 C 15,8 km/h (3 Bft) 0,00 %
13.10.2015 12:43 3,7 C 82 % 1014,0 hPa 0,0 l/m 3,2 km/h (1 Bft) O-SO 116 0 min 0,000 mm 1,0 UV-I 231 W/m 0,9 C 3,7 C 4,0 km/h (1 Bft) 0,00 %
13.10.2015 12:48 3,8 C 81 % 1014,0 hPa 0,0 l/m 8,3 km/h (2 Bft) O-NO 68 0 min 0,000 mm 1,0 UV-I 217 W/m 0,8 C 2,1 C 11,9 km/h (2 Bft) 0,00 %
13.10.2015 12:53 4,0 C 80 % 1013,9 hPa 0,0 l/m 2,2 km/h (1 Bft) O-NO 58 0 min 0,000 mm 1,0 UV-I 200 W/m 0,9 C 4,0 C 4,0 km/h (1 Bft) 0,00 %
13.10.2015 12:58 4,1 C 80 % 1014,0 hPa 0,0 l/m 0,7 km/h (0 Bft) O-SO 102 0 min 0,000 mm 1,0 UV-I 219 W/m 1,0 C 4,1 C 4,0 km/h (1 Bft) 0,00 %
13.10.2015 13:03 4,0 C 80 % 1014,0 hPa 0,0 l/m 4,0 km/h (1 Bft) O-NO 60 0 min 0,000 mm 1,0 UV-I 185 W/m 0,9 C 4,0 C 7,9 km/h (2 Bft) 0,00 %
13.10.2015 13:08 4,1 C 80 % 1013,9 hPa 0,0 l/m 10,8 km/h (2 Bft) O 92 0 min 0,000 mm 1,0 UV-I 190 W/m 1,0 C 0,5 C 15,8 km/h (3 Bft) 0,00 %
13.10.2015 13:13 4,1 C 81 % 1013,6 hPa 0,0 l/m 7,9 km/h (2 Bft) O 85 0 min 0,000 mm 1,0 UV-I 231 W/m 1,1 C 2,7 C 11,9 km/h (2 Bft) 0,00 %
13.10.2015 13:18 4,0 C 81 % 1013,6 hPa 0,0 l/m 9,7 km/h (2 Bft) O 94 0 min 0,000 mm 1,0 UV-I 240 W/m 1,0 C 1,2 C 15,8 km/h (3 Bft) 0,00 %
13.10.2015 13:23 4,1 C 80 % 1013,7 hPa 0,0 l/m 3,2 km/h (1 Bft) O 98 0 min 0,000 mm 1,0 UV-I 224 W/m 1,0 C 4,1 C 7,9 km/h (2 Bft) 0,00 %
13.10.2015 13:28 4,2 C 81 % 1013,8 hPa 0,0 l/m 4,7 km/h (1 Bft) O 96 0 min 0,000 mm 1,0 UV-I 221 W/m 1,2 C 4,2 C 7,9 km/h (2 Bft) 0,00 %
13.10.2015 13:33 4,2 C 80 % 1013,4 hPa 0,0 l/m 3,2 km/h (1 Bft) O-NO 70 0 min 0,000 mm 1,0 UV-I 255 W/m 1,1 C 4,2 C 7,9 km/h (2 Bft) 0,00 %
13.10.2015 13:38 4,2 C 81 % 1013,3 hPa 0,0 l/m 7,2 km/h (2 Bft) O-NO 77 5 min 0,000 mm 1,0 UV-I 318 W/m 1,2 C 3,5 C 11,9 km/h (2 Bft) 0,00 %
13.10.2015 13:43 4,4 C 80 % 1013,3 hPa 0,0 l/m 9,4 km/h (2 Bft) O-NO 68 5 min 0,000 mm 1,0 UV-I 346 W/m 1,3 C 1,9 C 11,9 km/h (2 Bft) 0,00 %
13.10.2015 13:48 4,6 C 80 % 1013,2 hPa 0,0 l/m 4,7 km/h (1 Bft) O-NO 60 5 min 0,000 mm 1,0 UV-I 373 W/m 1,5 C 4,6 C 11,9 km/h (2 Bft) 0,00 %
13.10.2015 13:53 4,7 C 80 % 1012,9 hPa 0,0 l/m 2,2 km/h (1 Bft) N-NW 346 5 min 0,000 mm 1,0 UV-I 422 W/m 1,6 C 4,7 C 7,9 km/h (2 Bft) 0,00 %
13.10.2015 13:58 4,9 C 78 % 1012,7 hPa 0,0 l/m 13,3 km/h (3 Bft) SO 136 5 min 0,000 mm 1,0 UV-I 378 W/m 1,4 C -0,1 C 19,8 km/h (3 Bft) 0,00 %
13.10.2015 14:03 5,0 C 79 % 1012,8 hPa 0,0 l/m 8,3 km/h (2 Bft) O 90 5 min 0,000 mm 1,0 UV-I 523 W/m 1,7 C 3,4 C 11,9 km/h (2 Bft) 0,00 %
13.10.2015 14:08 5,1 C 79 % 1012,9 hPa 0,0 l/m 4,7 km/h (1 Bft) O 81 5 min 0,000 mm 1,0 UV-I 462 W/m 1,8 C 5,1 C 11,9 km/h (2 Bft) 0,00 %
13.10.2015 14:13 5,2 C 77 % 1012,9 hPa 0,0 l/m 5,4 km/h (1 Bft) O-NO 60 5 min 0,000 mm 1,0 UV-I 523 W/m 1,5 C 5,2 C 11,9 km/h (2 Bft) 0,00 %
13.10.2015 14:18 5,2 C 76 % 1012,7 hPa 0,0 l/m 14,4 km/h (3 Bft) O-SO 111 5 min 0,000 mm 1,0 UV-I 517 W/m 1,3 C -0,4 C 15,8 km/h (3 Bft) 0,00 %
13.10.2015 14:23 5,2 C 77 % 1012,7 hPa 0,0 l/m 15,5 km/h (3 Bft) O 99 5 min 0,000 mm 1,0 UV-I 501 W/m 1,5 C -0,9 C 15,8 km/h (3 Bft) 0,00 %
13.10.2015 14:28 5,3 C 78 % 1012,7 hPa 0,0 l/m 10,4 km/h (2 Bft) NO 47 5 min 0,000 mm 1,0 UV-I 459 W/m 1,8 C 2,1 C 15,8 km/h (3 Bft) 0,00 %
13.10.2015 14:33 5,6 C 77 % 1012,6 hPa 0,0 l/m 10,4 km/h (2 Bft) O 101 5 min 0,000 mm 1,0 UV-I 380 W/m 1,9 C 2,5 C 11,9 km/h (2 Bft) 0,00 %
13.10.2015 14:38 5,6 C 78 % 1013,0 hPa 0,0 l/m 7,2 km/h (2 Bft) O-NO 75 0 min 0,000 mm 1,0 UV-I 228 W/m 2,1 C 4,9 C 11,9 km/h (2 Bft) 0,00 %
13.10.2015 14:43 5,3 C 80 % 1012,9 hPa 0,0 l/m 12,2 km/h (2 Bft) O 86 0 min 0,000 mm 1,0 UV-I 199 W/m 2,1 C 1,0 C 15,8 km/h (3 Bft) 0,00 %
13.10.2015 14:48 5,0 C 79 % 1013,0 hPa 0,0 l/m 9,0 km/h (2 Bft) O 91 0 min 0,000 mm 1,0 UV-I 233 W/m 1,7 C 2,8 C 11,9 km/h (2 Bft) 0,00 %
13.10.2015 14:53 5,0 C 79 % 1012,7 hPa 0,0 l/m 6,5 km/h (2 Bft) O-NO 72 5 min 0,000 mm 1,0 UV-I 371 W/m 1,7 C 4,9 C 11,9 km/h (2 Bft) 0,00 %
13.10.2015 14:58 5,1 C 79 % 1012,9 hPa 0,0 l/m 12,2 km/h (2 Bft) O-SO 113 5 min 0,000 mm 1,0 UV-I 323 W/m 1,8 C 0,8 C 15,8 km/h (3 Bft) 0,00 %
13.10.2015 15:03 5,3 C 79 % 1012,9 hPa 0,0 l/m 6,5 km/h (2 Bft) O-NO 71 0 min 0,000 mm 1,0 UV-I 247 W/m 2,0 C 5,2 C 7,9 km/h (2 Bft) 0,00 %
13.10.2015 15:08 5,4 C 79 % 1012,9 hPa 0,0 l/m 10,4 km/h (2 Bft) O 87 0 min 0,000 mm 1,0 UV-I 205 W/m 2,1 C 2,2 C 15,8 km/h (3 Bft) 0,00 %
13.10.2015 15:13 5,3 C 79 % 1012,9 hPa 0,0 l/m 0,0 km/h (0 Bft) N-NO 33 0 min 0,000 mm 1,0 UV-I 189 W/m 2,0 C 5,3 C 0,0 km/h (0 Bft) 0,00 %
13.10.2015 15:18 5,2 C 79 % 1013,0 hPa 0,0 l/m 8,3 km/h (2 Bft) O-NO 57 0 min 0,000 mm 1,0 UV-I 177 W/m 1,9 C 3,6 C 15,8 km/h (3 Bft) 0,00 %
13.10.2015 15:23 5,2 C 79 % 1012,8 hPa 0,0 l/m 4,0 km/h (1 Bft) O-NO 76 0 min 0,000 mm 1,0 UV-I 198 W/m 1,9 C 5,2 C 7,9 km/h (2 Bft) 0,00 %
13.10.2015 15:28 5,3 C 80 % 1012,8 hPa 0,0 l/m 10,8 km/h (2 Bft) O 80 0 min 0,000 mm 1,0 UV-I 201 W/m 2,1 C 1,9 C 11,9 km/h (2 Bft) 0,00 %
13.10.2015 15:33 5,3 C 79 % 1012,9 hPa 0,0 l/m 5,8 km/h (2 Bft) O 79 0 min 0,000 mm 1,0 UV-I 164 W/m 2,0 C 5,3 C 11,9 km/h (2 Bft) 0,00 %
13.10.2015 15:38 5,3 C 80 % 1013,0 hPa 0,0 l/m 10,8 km/h (2 Bft) O 92 0 min 0,000 mm 1,0 UV-I 140 W/m 2,1 C 1,9 C 15,8 km/h (3 Bft) 0,00 %
13.10.2015 15:43 5,1 C 80 % 1013,0 hPa 0,0 l/m 9,0 km/h (2 Bft) O 84 0 min 0,000 mm 1,0 UV-I 130 W/m 1,9 C 2,9 C 11,9 km/h (2 Bft) 0,00 %
13.10.2015 15:48 4,9 C 81 % 1013,0 hPa 0,0 l/m 8,3 km/h (2 Bft) O-SO 105 0 min 0,000 mm 1,0 UV-I 125 W/m 1,9 C 3,3 C 11,9 km/h (2 Bft) 0,00 %
13.10.2015 15:53 4,8 C 82 % 1013,1 hPa 0,0 l/m 2,9 km/h (1 Bft) O 92 0 min 0,000 mm 1,0 UV-I 111 W/m 2,0 C 4,8 C 4,0 km/h (1 Bft) 0,00 %
13.10.2015 15:58 4,7 C 82 % 1013,0 hPa 0,0 l/m 12,2 km/h (2 Bft) O-SO 107 0 min 0,000 mm 1,0 UV-I 100 W/m 1,9 C 0,3 C 15,8 km/h (3 Bft) 0,00 %
13.10.2015 16:03 4,5 C 82 % 1013,4 hPa 0,0 l/m 8,3 km/h (2 Bft) O 96 0 min 0,000 mm 1,0 UV-I 88 W/m 1,7 C 2,8 C 11,9 km/h (2 Bft) 0,00 %
13.10.2015 16:08 4,4 C 82 % 1013,0 hPa 0,0 l/m 7,9 km/h (2 Bft) O 92 0 min 0,000 mm 1,0 UV-I 95 W/m 1,6 C 3,1 C 7,9 km/h (2 Bft) 0,00 %
13.10.2015 16:13 4,4 C 82 % 1013,1 hPa 0,0 l/m 5,4 km/h (1 Bft) O-NO 77 0 min 0,000 mm 0,0 UV-I 85 W/m 1,6 C 4,4 C 7,9 km/h (2 Bft) 0,00 %
13.10.2015 16:18 4,4 C 83 % 1013,0 hPa 0,0 l/m 5,8 km/h (2 Bft) O 94 0 min 0,000 mm 0,0 UV-I 77 W/m 1,8 C 4,4 C 7,9 km/h (2 Bft) 0,00 %
13.10.2015 16:23 4,4 C 83 % 1013,1 hPa 0,0 l/m 11,9 km/h (2 Bft) O-SO 108 0 min 0,000 mm 0,0 UV-I 77 W/m 1,8 C 0,1 C 19,8 km/h (3 Bft) 0,00 %
13.10.2015 16:28 4,3 C 83 % 1013,0 hPa 0,0 l/m 2,2 km/h (1 Bft) SO 124 0 min 0,000 mm 0,0 UV-I 72 W/m 1,7 C 4,3 C 4,0 km/h (1 Bft) 0,00 %
13.10.2015 16:33 4,2 C 83 % 1013,2 hPa 0,0 l/m 7,2 km/h (2 Bft) O 85 0 min 0,000 mm 0,0 UV-I 64 W/m 1,6 C 3,5 C 11,9 km/h (2 Bft) 0,00 %
13.10.2015 16:38 4,1 C 83 % 1013,3 hPa 0,0 l/m 5,8 km/h (2 Bft) O-SO 113 0 min 0,000 mm 0,0 UV-I 59 W/m 1,5 C 4,1 C 7,9 km/h (2 Bft) 0,00 %
13.10.2015 16:43 4,1 C 83 % 1013,2 hPa 0,0 l/m 14,4 km/h (3 Bft) O 98 0 min 0,000 mm 0,0 UV-I 58 W/m 1,5 C -1,7 C 15,8 km/h (3 Bft) 0,00 %
13.10.2015 16:48 4,0 C 84 % 1013,0 hPa 0,0 l/m 9,0 km/h (2 Bft) O-SO 114 0 min 0,000 mm 0,0 UV-I 58 W/m 1,5 C 1,7 C 11,9 km/h (2 Bft) 0,00 %
13.10.2015 16:53 4,0 C 84 % 1013,1 hPa 0,0 l/m 4,7 km/h (1 Bft) O-NO 60 0 min 0,000 mm 0,0 UV-I 60 W/m 1,5 C 4,0 C 7,9 km/h (2 Bft) 0,00 %
13.10.2015 16:58 4,0 C 84 % 1012,7 hPa 0,0 l/m 8,3 km/h (2 Bft) O 87 0 min 0,000 mm 0,0 UV-I 64 W/m 1,5 C 2,3 C 11,9 km/h (2 Bft) 0,00 %
13.10.2015 17:03 4,0 C 85 % 1012,9 hPa 0,0 l/m 12,2 km/h (2 Bft) O 96 0 min 0,000 mm 0,0 UV-I 62 W/m 1,7 C -0,5 C 15,8 km/h (3 Bft) 0,00 %
13.10.2015 17:08 3,9 C 86 % 1012,9 hPa 0,0 l/m 14,4 km/h (3 Bft) O-SO 113 0 min 0,000 mm 0,0 UV-I 57 W/m 1,8 C -1,9 C 19,8 km/h (3 Bft) 0,00 %
13.10.2015 17:13 3,8 C 86 % 1012,9 hPa 0,0 l/m 5,8 km/h (2 Bft) O 83 0 min 0,000 mm 0,0 UV-I 56 W/m 1,7 C 3,8 C 7,9 km/h (2 Bft) 0,00 %
13.10.2015 17:18 3,6 C 87 % 1013,0 hPa 0,0 l/m 9,7 km/h (2 Bft) O 94 0 min 0,000 mm 0,0 UV-I 49 W/m 1,6 C 0,8 C 11,9 km/h (2 Bft) 0,00 %
13.10.2015 17:23 3,4 C 87 % 1013,1 hPa 0,0 l/m 1,4 km/h (1 Bft) O-SO 113 0 min 0,000 mm 0,0 UV-I 42 W/m 1,4 C 3,4 C 4,0 km/h (1 Bft) 0,00 %
13.10.2015 17:28 3,4 C 88 % 1012,9 hPa 0,0 l/m 6,8 km/h (2 Bft) O 81 0 min 0,000 mm 0,0 UV-I 36 W/m 1,6 C 3,0 C 11,9 km/h (2 Bft) 0,00 %
13.10.2015 17:33 3,4 C 88 % 1013,1 hPa 0,0 l/m 6,8 km/h (2 Bft) O 90 0 min 0,000 mm 0,0 UV-I 31 W/m 1,6 C 3,0 C 11,9 km/h (2 Bft) 0,00 %
13.10.2015 17:38 3,3 C 88 % 1013,1 hPa 0,0 l/m 8,3 km/h (2 Bft) O-SO 107 0 min 0,000 mm 0,0 UV-I 23 W/m 1,5 C 1,6 C 11,9 km/h (2 Bft) 0,00 %
13.10.2015 17:43 3,3 C 89 % 1013,2 hPa 0,0 l/m 3,2 km/h (1 Bft) O 94 0 min 0,000 mm 0,0 UV-I 16 W/m 1,7 C 3,3 C 7,9 km/h (2 Bft) 0,00 %
13.10.2015 17:48 3,3 C 89 % 1013,3 hPa 0,0 l/m 7,2 km/h (2 Bft) O-SO 111 0 min 0,000 mm 0,0 UV-I 9 W/m 1,7 C 2,5 C 7,9 km/h (2 Bft) 0,00 %
13.10.2015 17:53 3,2 C 89 % 1013,2 hPa 0,0 l/m 3,2 km/h (1 Bft) O-SO 102 0 min 0,000 mm 0,0 UV-I 5 W/m 1,6 C 3,2 C 7,9 km/h (2 Bft) 0,00 %
13.10.2015 17:58 3,2 C 89 % 1013,2 hPa 0,0 l/m 4,0 km/h (1 Bft) SO 128 0 min 0,000 mm 0,0 UV-I 2 W/m 1,6 C 3,2 C 7,9 km/h (2 Bft) 0,00 %
13.10.2015 18:03 3,2 C 90 % 1013,1 hPa 0,0 l/m 4,3 km/h (1 Bft) O 94 0 min 0,000 mm 0,0 UV-I 0 W/m 1,7 C 3,2 C 7,9 km/h (2 Bft) 0,00 %
13.10.2015 18:08 3,2 C 90 % 1013,2 hPa 0,0 l/m 0,4 km/h (0 Bft) O-NO 76 0 min 0,000 mm 0,0 UV-I 0 W/m 1,7 C 3,2 C 4,0 km/h (1 Bft) 0,00 %
13.10.2015 18:13 3,2 C 90 % 1013,1 hPa 0,0 l/m 4,0 km/h (1 Bft) O 90 0 min 0,000 mm 0,0 UV-I 0 W/m 1,7 C 3,2 C 7,9 km/h (2 Bft) 0,00 %
13.10.2015 18:18 3,2 C 90 % 1013,4 hPa 0,0 l/m 4,0 km/h (1 Bft) O 99 0 min 0,000 mm 0,0 UV-I 0 W/m 1,7 C 3,2 C 7,9 km/h (2 Bft) 0,00 %
13.10.2015 18:23 3,1 C 90 % 1013,3 hPa 0,0 l/m 4,3 km/h (1 Bft) O 91 0 min 0,000 mm 0,0 UV-I 0 W/m 1,6 C 3,1 C 7,9 km/h (2 Bft) 0,00 %
13.10.2015 18:28 3,1 C 90 % 1013,3 hPa 0,0 l/m 1,8 km/h (1 Bft) O-SO 107 0 min 0,000 mm 0,0 UV-I 0 W/m 1,6 C 3,1 C 4,0 km/h (1 Bft) 0,00 %
13.10.2015 18:33 3,2 C 91 % 1013,4 hPa 0,0 l/m 9,0 km/h (2 Bft) O 87 0 min 0,000 mm 0,0 UV-I 0 W/m 1,9 C 0,9 C 11,9 km/h (2 Bft) 0,00 %
13.10.2015 18:38 3,1 C 91 % 1013,4 hPa 0,0 l/m 4,0 km/h (1 Bft) O-SO 119 0 min 0,000 mm 0,0 UV-I 0 W/m 1,8 C 3,1 C 7,9 km/h (2 Bft) 0,00 %
13.10.2015 18:43 3,1 C 91 % 1013,2 hPa 0,0 l/m 7,2 km/h (2 Bft) O 93 0 min 0,000 mm 0,0 UV-I 0 W/m 1,8 C 2,3 C 11,9 km/h (2 Bft) 0,00 %
13.10.2015 18:48 3,1 C 91 % 1013,3 hPa 0,0 l/m 2,9 km/h (1 Bft) O-NO 69 0 min 0,000 mm 0,0 UV-I 0 W/m 1,8 C 3,1 C 7,9 km/h (2 Bft) 0,00 %
13.10.2015 18:53 3,1 C 91 % 1013,2 hPa 0,0 l/m 0,4 km/h (0 Bft) O-SO 113 0 min 0,000 mm 0,0 UV-I 0 W/m 1,8 C 3,1 C 4,0 km/h (1 Bft) 0,00 %
13.10.2015 20:30 4,3 C 92 % 1014,9 hPa 0,0 l/m 8,0 km/h (2 Bft) O 90 0 min 0,000 mm 0,0 UV-I 0 W/m 3,1 C 2,9 C 12,9 km/h (3 Bft) 93,86 %
13.10.2015 20:36 4,4 C 92 % 1014,4 hPa 0,0 l/m 8,0 km/h (2 Bft) O 86 0 min 0,000 mm 0,0 UV-I 0 W/m 3,2 C 3,0 C 16,1 km/h (3 Bft) 98,86 %
13.10.2015 20:37 4,4 C 92 % 1014,4 hPa 0,0 l/m 8,0 km/h (2 Bft) O-NO 77 0 min 0,000 mm 0,0 UV-I 0 W/m 3,2 C 3,0 C 14,5 km/h (3 Bft) 100,00 %
13.10.2015 20:38 4,4 C 92 % 1014,4 hPa 0,0 l/m 9,3 km/h (2 Bft) O-NO 61 0 min 0,000 mm 0,0 UV-I 0 W/m 3,2 C 1,9 C 14,5 km/h (3 Bft) 100,00 %
13.10.2015 20:40 4,4 C 92 % 1014,3 hPa 0,0 l/m 10,6 km/h (2 Bft) O 82 0 min 0,000 mm 0,0 UV-I 0 W/m 3,2 C 1,0 C 16,1 km/h (3 Bft) 100,00 %
13.10.2015 20:42 4,4 C 92 % 1014,3 hPa 0,0 l/m 10,3 km/h (2 Bft) O 95 0 min 0,000 mm 0,0 UV-I 0 W/m 3,2 C 1,2 C 16,1 km/h (3 Bft) 97,56 %
13.10.2015 20:44 4,4 C 92 % 1014,3 hPa 0,0 l/m 8,7 km/h (2 Bft) O-NO 74 0 min 0,000 mm 0,0 UV-I 0 W/m 3,2 C 2,4 C 14,5 km/h (3 Bft) 100,00 %
13.10.2015 20:45 4,5 C 92 % 1014,3 hPa 0,0 l/m 9,7 km/h (2 Bft) O 90 0 min 0,000 mm 0,0 UV-I 0 W/m 3,3 C 1,7 C 16,1 km/h (3 Bft) 100,00 %
13.10.2015 20:48 4,5 C 92 % 1014,2 hPa 0,0 l/m 11,5 km/h (2 Bft) O 83 0 min 0,000 mm 0,0 UV-I 0 W/m 3,3 C 0,5 C 16,1 km/h (3 Bft) 98,91 %
13.10.2015 20:50 4,5 C 92 % 1014,1 hPa 0,0 l/m 8,9 km/h (2 Bft) O-SO 106 0 min 0,000 mm 0,0 UV-I 0 W/m 3,3 C 2,3 C 16,1 km/h (3 Bft) 98,00 %
13.10.2015 20:52 4,5 C 92 % 1014,1 hPa 0,0 l/m 12,0 km/h (2 Bft) O-NO 64 0 min 0,000 mm 0,0 UV-I 0 W/m 3,3 C 0,2 C 17,7 km/h (3 Bft) 100,00 %
13.10.2015 20:54 4,6 C 92 % 1014,2 hPa 0,0 l/m 8,2 km/h (2 Bft) O-NO 58 0 min 0,000 mm 0,0 UV-I 0 W/m 3,4 C 3,0 C 12,9 km/h (3 Bft) 100,00 %
13.10.2015 20:56 4,6 C 92 % 1014,1 hPa 0,0 l/m 8,9 km/h (2 Bft) O-NO 64 0 min 0,000 mm 0,0 UV-I 0 W/m 3,4 C 2,5 C 14,5 km/h (3 Bft) 100,00 %
13.10.2015 21:00 4,6 C 92 % 1014,0 hPa 0,0 l/m 11,6 km/h (2 Bft) NO 55 0 min 0,000 mm 0,0 UV-I 0 W/m 3,4 C 0,5 C 20,9 km/h (4 Bft) 100,00 %
13.10.2015 21:02 4,6 C 92 % 1014,0 hPa 0,0 l/m 13,1 km/h (3 Bft) O 93 0 min 0,000 mm 0,0 UV-I 0 W/m 3,4 C -0,4 C 19,3 km/h (3 Bft) 100,00 %
13.10.2015 21:04 4,6 C 92 % 1014,1 hPa 0,0 l/m 12,8 km/h (3 Bft) O-SO 123 0 min 0,000 mm 0,0 UV-I 0 W/m 3,4 C -0,2 C 24,1 km/h (4 Bft) 98,11 %
13.10.2015 21:06 4,7 C 92 % 1014,1 hPa 0,0 l/m 10,5 km/h (2 Bft) NO 54 0 min 0,000 mm 0,0 UV-I 0 W/m 3,5 C 1,4 C 17,7 km/h (3 Bft) 100,00 %
13.10.2015 21:08 4,7 C 92 % 1014,0 hPa 0,0 l/m 13,0 km/h (3 Bft) O 92 0 min 0,000 mm 0,0 UV-I 0 W/m 3,5 C -0,2 C 19,3 km/h (3 Bft) 100,00 %
13.10.2015 21:10 4,7 C 92 % 1014,0 hPa 0,0 l/m 11,3 km/h (2 Bft) O 90 0 min 0,000 mm 0,0 UV-I 0 W/m 3,5 C 0,9 C 19,3 km/h (3 Bft) 100,00 %
13.10.2015 21:14 4,7 C 92 % 1014,0 hPa 0,0 l/m 10,0 km/h (2 Bft) O-NO 69 0 min 0,000 mm 0,0 UV-I 0 W/m 3,5 C 1,7 C 17,7 km/h (3 Bft) 99,30 %
13.10.2015 21:16 4,7 C 92 % 1014,0 hPa 0,0 l/m 14,9 km/h (3 Bft) O 81 0 min 0,000 mm 0,0 UV-I 0 W/m 3,5 C -1,2 C 17,7 km/h (3 Bft) 100,00 %
13.10.2015 21:18 4,7 C 92 % 1014,0 hPa 0,0 l/m 13,0 km/h (3 Bft) O 84 0 min 0,000 mm 0,0 UV-I 0 W/m 3,5 C -0,2 C 19,3 km/h (3 Bft) 100,00 %
13.10.2015 21:20 4,7 C 92 % 1014,0 hPa 0,0 l/m 8,5 km/h (2 Bft) O 84 0 min 0,000 mm 0,0 UV-I 0 W/m 3,5 C 2,9 C 12,9 km/h (3 Bft) 100,00 %
13.10.2015 21:22 4,7 C 92 % 1013,9 hPa 0,0 l/m 13,2 km/h (3 Bft) O 86 0 min 0,000 mm 0,0 UV-I 0 W/m 3,5 C -0,3 C 19,3 km/h (3 Bft) 100,00 %
13.10.2015 21:24 4,7 C 92 % 1013,9 hPa 0,0 l/m 8,8 km/h (2 Bft) O 87 0 min 0,000 mm 0,0 UV-I 0 W/m 3,5 C 2,6 C 19,3 km/h (3 Bft) 100,00 %
13.10.2015 21:26 4,7 C 92 % 1013,8 hPa 0,0 l/m 11,6 km/h (2 Bft) SO 130 0 min 0,000 mm 0,0 UV-I 0 W/m 3,5 C 0,7 C 17,7 km/h (3 Bft) 97,22 %
13.10.2015 21:28 4,7 C 92 % 1013,7 hPa 0,0 l/m 12,3 km/h (3 Bft) O 86 0 min 0,000 mm 0,0 UV-I 0 W/m 3,5 C 0,2 C 19,3 km/h (3 Bft) 100,00 %
13.10.2015 21:30 4,7 C 92 % 1013,6 hPa 0,0 l/m 13,2 km/h (3 Bft) NO 49 0 min 0,000 mm 0,0 UV-I 0 W/m 3,5 C -0,3 C 20,9 km/h (4 Bft) 100,00 %
13.10.2015 21:32 4,8 C 92 % 1013,9 hPa 0,0 l/m 14,2 km/h (3 Bft) O 84 0 min 0,000 mm 0,0 UV-I 0 W/m 3,6 C -0,7 C 22,5 km/h (4 Bft) 100,00 %
13.10.2015 21:34 4,7 C 92 % 1014,0 hPa 0,0 l/m 10,1 km/h (2 Bft) O 82 0 min 0,000 mm 0,0 UV-I 0 W/m 3,5 C 1,7 C 14,5 km/h (3 Bft) 100,00 %
13.10.2015 21:36 4,8 C 92 % 1014,1 hPa 0,0 l/m 9,0 km/h (2 Bft) O 85 0 min 0,000 mm 0,0 UV-I 0 W/m 3,6 C 2,6 C 14,5 km/h (3 Bft) 100,00 %
13.10.2015 21:38 4,8 C 93 % 1014,1 hPa 0,0 l/m 8,9 km/h (2 Bft) O-NO 62 0 min 0,000 mm 0,0 UV-I 0 W/m 3,8 C 2,7 C 12,9 km/h (3 Bft) 100,00 %
13.10.2015 21:40 4,8 C 92 % 1014,1 hPa 0,0 l/m 7,4 km/h (2 Bft) O-NO 59 0 min 0,000 mm 0,0 UV-I 0 W/m 3,6 C 3,9 C 11,3 km/h (2 Bft) 100,00 %
13.10.2015 21:42 4,8 C 93 % 1014,0 hPa 0,0 l/m 7,1 km/h (2 Bft) O 81 0 min 0,000 mm 0,0 UV-I 0 W/m 3,8 C 4,2 C 12,9 km/h (3 Bft) 100,00 %
13.10.2015 21:44 4,8 C 93 % 1014,0 hPa 0,0 l/m 9,1 km/h (2 Bft) N-NO 32 0 min 0,000 mm 0,0 UV-I 0 W/m 3,8 C 2,5 C 16,1 km/h (3 Bft) 100,00 %
13.10.2015 21:46 4,8 C 93 % 1014,0 hPa 0,0 l/m 12,1 km/h (2 Bft) O 94 0 min 0,000 mm 0,0 UV-I 0 W/m 3,8 C 0,5 C 19,3 km/h (3 Bft) 100,00 %
13.10.2015 21:48 4,8 C 93 % 1013,9 hPa 0,0 l/m 9,7 km/h (2 Bft) O 80 0 min 0,000 mm 0,0 UV-I 0 W/m 3,8 C 2,1 C 14,5 km/h (3 Bft) 100,00 %
13.10.2015 21:50 4,8 C 93 % 1014,0 hPa 0,0 l/m 13,2 km/h (3 Bft) O 87 0 min 0,000 mm 0,0 UV-I 0 W/m 3,8 C -0,2 C 20,9 km/h (4 Bft) 100,00 %
13.10.2015 21:52 4,8 C 93 % 1013,9 hPa 0,0 l/m 15,2 km/h (3 Bft) O 94 0 min 0,000 mm 0,0 UV-I 0 W/m 3,8 C -1,3 C 20,9 km/h (4 Bft) 100,00 %
13.10.2015 21:54 4,8 C 93 % 1013,8 hPa 0,0 l/m 10,3 km/h (2 Bft) O 90 0 min 0,000 mm 0,0 UV-I 0 W/m 3,8 C 1,6 C 19,3 km/h (3 Bft) 100,00 %
13.10.2015 21:56 4,8 C 93 % 1013,7 hPa 0,0 l/m 13,1 km/h (3 Bft) O-NO 76 0 min 0,000 mm 0,0 UV-I 0 W/m 3,8 C -0,1 C 20,9 km/h (4 Bft) 100,00 %
13.10.2015 21:58 4,7 C 93 % 1013,6 hPa 0,0 l/m 14,4 km/h (3 Bft) O-NO 78 0 min 0,000 mm 0,0 UV-I 0 W/m 3,7 C -1,0 C 20,9 km/h (4 Bft) 100,00 %
13.10.2015 22:00 4,7 C 94 % 1013,6 hPa 0,0 l/m 12,8 km/h (3 Bft) NO 50 0 min 0,000 mm 0,0 UV-I 0 W/m 3,8 C -0,1 C 24,1 km/h (4 Bft) 100,00 %
13.10.2015 22:02 4,7 C 94 % 1013,6 hPa 0,0 l/m 12,7 km/h (3 Bft) O-NO 59 0 min 0,000 mm 0,0 UV-I 0 W/m 3,8 C -0,0 C 20,9 km/h (4 Bft) 100,00 %
13.10.2015 22:04 4,7 C 94 % 1013,7 hPa 0,0 l/m 14,9 km/h (3 Bft) O 80 0 min 0,000 mm 0,0 UV-I 0 W/m 3,8 C -1,2 C 20,9 km/h (4 Bft) 98,44 %
13.10.2015 22:06 4,7 C 94 % 1013,7 hPa 0,0 l/m 12,0 km/h (2 Bft) O 86 0 min 0,000 mm 0,0 UV-I 0 W/m 3,8 C 0,4 C 20,9 km/h (4 Bft) 100,00 %
13.10.2015 22:08 4,7 C 94 % 1013,7 hPa 0,0 l/m 12,5 km/h (3 Bft) O 83 0 min 0,000 mm 0,0 UV-I 0 W/m 3,8 C 0,1 C 17,7 km/h (3 Bft) 100,00 %
13.10.2015 22:10 4,7 C 94 % 1013,7 hPa 0,0 l/m 12,3 km/h (3 Bft) O-SO 119 0 min 0,000 mm 0,0 UV-I 0 W/m 3,8 C 0,2 C 20,9 km/h (4 Bft) 96,00 %
13.10.2015 22:12 4,7 C 94 % 1013,7 hPa 0,0 l/m 11,5 km/h (2 Bft) O 96 0 min 0,000 mm 0,0 UV-I 0 W/m 3,8 C 0,7 C 20,9 km/h (4 Bft) 100,00 %
13.10.2015 22:14 4,7 C 94 % 1013,6 hPa 0,0 l/m 9,8 km/h (2 Bft) O-NO 69 0 min 0,000 mm 0,0 UV-I 0 W/m 3,8 C 1,9 C 16,1 km/h (3 Bft) 97,37 %
13.10.2015 22:16 4,7 C 94 % 1013,6 hPa 0,0 l/m 12,1 km/h (2 Bft) NO 56 0 min 0,000 mm 0,0 UV-I 0 W/m 3,8 C 0,3 C 19,3 km/h (3 Bft) 98,11 %
13.10.2015 22:18 4,7 C 94 % 1013,6 hPa 0,0 l/m 13,1 km/h (3 Bft) O 86 0 min 0,000 mm 0,0 UV-I 0 W/m 3,8 C -0,2 C 19,3 km/h (3 Bft) 100,00 %
13.10.2015 22:20 4,8 C 94 % 1013,6 hPa 0,0 l/m 11,9 km/h (2 Bft) O 92 0 min 0,000 mm 0,0 UV-I 0 W/m 3,9 C 0,6 C 17,7 km/h (3 Bft) 96,15 %
13.10.2015 22:22 4,8 C 94 % 1013,6 hPa 0,0 l/m 13,6 km/h (3 Bft) O-SO 102 0 min 0,000 mm 0,0 UV-I 0 W/m 3,9 C -0,4 C 19,3 km/h (3 Bft) 100,00 %
13.10.2015 22:24 4,8 C 94 % 1013,5 hPa 0,0 l/m 12,7 km/h (3 Bft) O 101 0 min 0,000 mm 0,0 UV-I 0 W/m 3,9 C 0,1 C 16,1 km/h (3 Bft) 100,00 %
13.10.2015 22:26 4,8 C 94 % 1013,5 hPa 0,0 l/m 13,3 km/h (3 Bft) O-NO 67 0 min 0,000 mm 0,0 UV-I 0 W/m 3,9 C -0,2 C 20,9 km/h (4 Bft) 100,00 %
13.10.2015 22:28 4,8 C 94 % 1013,6 hPa 0,0 l/m 14,3 km/h (3 Bft) O-NO 78 0 min 0,000 mm 0,0 UV-I 0 W/m 3,9 C -0,8 C 19,3 km/h (3 Bft) 100,00 %
13.10.2015 22:30 4,8 C 94 % 1013,6 hPa 0,0 l/m 10,8 km/h (2 Bft) O 95 0 min 0,000 mm 0,0 UV-I 0 W/m 3,9 C 1,3 C 17,7 km/h (3 Bft) 98,00 %
13.10.2015 22:32 4,8 C 94 % 1013,5 hPa 0,0 l/m 9,8 km/h (2 Bft) NO 55 0 min 0,000 mm 0,0 UV-I 0 W/m 3,9 C 2,0 C 17,7 km/h (3 Bft) 100,00 %
13.10.2015 22:34 4,8 C 95 % 1013,4 hPa 0,0 l/m 6,8 km/h (2 Bft) O-NO 75 0 min 0,000 mm 0,0 UV-I 0 W/m 4,1 C 4,5 C 12,9 km/h (3 Bft) 94,74 %
13.10.2015 22:36 4,8 C 95 % 1013,4 hPa 0,0 l/m 10,4 km/h (2 Bft) O 79 0 min 0,000 mm 0,0 UV-I 0 W/m 4,1 C 1,6 C 20,9 km/h (4 Bft) 98,00 %
13.10.2015 22:38 4,8 C 95 % 1013,3 hPa 0,0 l/m 11,1 km/h (2 Bft) O-NO 60 0 min 0,000 mm 0,0 UV-I 0 W/m 4,1 C 1,1 C 17,7 km/h (3 Bft) 100,00 %
13.10.2015 22:40 4,8 C 95 % 1013,2 hPa 0,0 l/m 12,4 km/h (3 Bft) O-SO 117 0 min 0,000 mm 0,0 UV-I 0 W/m 4,1 C 0,3 C 17,7 km/h (3 Bft) 100,00 %
13.10.2015 22:42 4,8 C 95 % 1013,1 hPa 0,0 l/m 9,6 km/h (2 Bft) O-NO 63 0 min 0,000 mm 0,0 UV-I 0 W/m 4,1 C 2,1 C 16,1 km/h (3 Bft) 100,00 %
13.10.2015 22:44 4,8 C 95 % 1013,2 hPa 0,0 l/m 12,1 km/h (2 Bft) O-SO 105 0 min 0,000 mm 0,0 UV-I 0 W/m 4,1 C 0,5 C 20,9 km/h (4 Bft) 97,87 %
13.10.2015 22:46 4,8 C 95 % 1013,2 hPa 0,0 l/m 10,3 km/h (2 Bft) O-NO 64 0 min 0,000 mm 0,0 UV-I 0 W/m 4,1 C 1,6 C 16,1 km/h (3 Bft) 97,22 %
13.10.2015 22:48 4,9 C 95 % 1013,2 hPa 0,0 l/m 11,3 km/h (2 Bft) NO 55 0 min 0,000 mm 0,0 UV-I 0 W/m 4,2 C 1,1 C 20,9 km/h (4 Bft) 100,00 %
13.10.2015 22:50 4,9 C 95 % 1013,2 hPa 0,0 l/m 13,4 km/h (3 Bft) O-NO 68 0 min 0,000 mm 0,0 UV-I 0 W/m 4,2 C -0,2 C 20,9 km/h (4 Bft) 100,00 %
13.10.2015 22:52 4,9 C 95 % 1013,2 hPa 0,0 l/m 11,7 km/h (2 Bft) O 88 0 min 0,000 mm 0,0 UV-I 0 W/m 4,2 C 0,8 C 22,5 km/h (4 Bft) 100,00 %
13.10.2015 22:54 4,9 C 95 % 1013,1 hPa 0,0 l/m 12,8 km/h (3 Bft) O 84 0 min 0,000 mm 0,0 UV-I 0 W/m 4,2 C 0,2 C 17,7 km/h (3 Bft) 98,00 %
13.10.2015 22:56 4,9 C 95 % 1013,2 hPa 0,0 l/m 10,0 km/h (2 Bft) O-NO 74 0 min 0,000 mm 0,0 UV-I 0 W/m 4,2 C 2,0 C 20,9 km/h (4 Bft) 100,00 %
13.10.2015 22:58 4,9 C 95 % 1013,2 hPa 0,0 l/m 7,9 km/h (2 Bft) O 83 0 min 0,000 mm 0,0 UV-I 0 W/m 4,2 C 3,6 C 12,9 km/h (3 Bft) 97,87 %
13.10.2015 23:00 4,9 C 95 % 1013,1 hPa 0,0 l/m 9,4 km/h (2 Bft) O 92 0 min 0,000 mm 0,0 UV-I 0 W/m 4,2 C 2,4 C 14,5 km/h (3 Bft) 100,00 %
13.10.2015 23:02 4,9 C 95 % 1012,9 hPa 0,0 l/m 10,2 km/h (2 Bft) O-NO 67 0 min 0,000 mm 0,0 UV-I 0 W/m 4,2 C 1,8 C 17,7 km/h (3 Bft) 100,00 %
13.10.2015 23:04 4,9 C 95 % 1012,9 hPa 0,0 l/m 4,3 km/h (1 Bft) O-NO 69 0 min 0,000 mm 0,0 UV-I 0 W/m 4,2 C 4,9 C 9,7 km/h (2 Bft) 100,00 %
13.10.2015 23:06 4,9 C 95 % 1012,9 hPa 0,0 l/m 2,8 km/h (1 Bft) N-NO 31 0 min 0,000 mm 0,0 UV-I 0 W/m 4,2 C 4,9 C 4,8 km/h (1 Bft) 100,00 %
13.10.2015 23:08 5,0 C 95 % 1012,9 hPa 0,0 l/m 2,0 km/h (1 Bft) O-NO 58 0 min 0,000 mm 0,0 UV-I 0 W/m 4,3 C 5,0 C 4,8 km/h (1 Bft) 100,00 %
13.10.2015 23:10 5,0 C 95 % 1012,9 hPa 0,0 l/m 4,7 km/h (1 Bft) O-SO 103 0 min 0,000 mm 0,0 UV-I 0 W/m 4,3 C 5,0 C 9,7 km/h (2 Bft) 100,00 %
13.10.2015 23:12 4,9 C 95 % 1012,9 hPa 0,0 l/m 3,6 km/h (1 Bft) O 84 0 min 0,000 mm 0,0 UV-I 0 W/m 4,2 C 4,9 C 9,7 km/h (2 Bft) 100,00 %
13.10.2015 23:14 4,9 C 95 % 1012,8 hPa 0,0 l/m 3,2 km/h (1 Bft) O 86 0 min 0,000 mm 0,0 UV-I 0 W/m 4,2 C 4,9 C 6,4 km/h (2 Bft) 98,00 %
13.10.2015 23:16 5,0 C 94 % 1012,7 hPa 0,0 l/m 6,1 km/h (2 Bft) O-SO 107 0 min 0,000 mm 0,0 UV-I 0 W/m 4,1 C 5,0 C 11,3 km/h (2 Bft) 100,00 %
13.10.2015 23:18 4,9 C 94 % 1012,8 hPa 0,0 l/m 3,5 km/h (1 Bft) O-NO 70 0 min 0,000 mm 0,0 UV-I 0 W/m 4,0 C 4,9 C 6,4 km/h (2 Bft) 100,00 %
13.10.2015 23:20 4,9 C 94 % 1012,9 hPa 0,0 l/m 3,3 km/h (1 Bft) O 98 0 min 0,000 mm 0,0 UV-I 0 W/m 4,0 C 4,9 C 6,4 km/h (2 Bft) 100,00 %
13.10.2015 23:22 4,9 C 94 % 1013,0 hPa 0,0 l/m 3,7 km/h (1 Bft) N-NO 19 0 min 0,000 mm 0,0 UV-I 0 W/m 4,0 C 4,9 C 8,0 km/h (2 Bft) 100,00 %
13.10.2015 23:24 4,9 C 94 % 1013,0 hPa 0,0 l/m 2,3 km/h (1 Bft) O 83 0 min 0,000 mm 0,0 UV-I 0 W/m 4,0 C 4,9 C 6,4 km/h (2 Bft) 100,00 %
13.10.2015 23:26 4,9 C 94 % 1012,9 hPa 0,0 l/m 2,4 km/h (1 Bft) N-NO 26 0 min 0,000 mm 0,0 UV-I 0 W/m 4,0 C 4,9 C 6,4 km/h (2 Bft) 100,00 %
13.10.2015 23:28 4,9 C 94 % 1013,0 hPa 0,0 l/m 3,9 km/h (1 Bft) NO 49 0 min 0,000 mm 0,0 UV-I 0 W/m 4,0 C 4,9 C 6,4 km/h (2 Bft) 100,00 %
13.10.2015 23:30 4,9 C 94 % 1012,9 hPa 0,0 l/m 2,9 km/h (1 Bft) N-NO 22 0 min 0,000 mm 0,0 UV-I 0 W/m 4,0 C 4,9 C 4,8 km/h (1 Bft) 100,00 %
13.10.2015 23:32 4,9 C 94 % 1013,0 hPa 0,0 l/m 2,4 km/h (1 Bft) O 101 0 min 0,000 mm 0,0 UV-I 0 W/m 4,0 C 4,9 C 4,8 km/h (1 Bft) 100,00 %
13.10.2015 23:34 4,9 C 94 % 1013,0 hPa 0,0 l/m 1,5 km/h (1 Bft) O-NO 77 0 min 0,000 mm 0,0 UV-I 0 W/m 4,0 C 4,9 C 3,2 km/h (1 Bft) 100,00 %
13.10.2015 23:36 4,9 C 94 % 1013,0 hPa 0,0 l/m 2,8 km/h (1 Bft) O 90 0 min 0,000 mm 0,0 UV-I 0 W/m 4,0 C 4,9 C 6,4 km/h (2 Bft) 100,00 %
13.10.2015 23:38 4,9 C 94 % 1012,9 hPa 0,0 l/m 2,3 km/h (1 Bft) NO 44 0 min 0,000 mm 0,0 UV-I 0 W/m 4,0 C 4,9 C 4,8 km/h (1 Bft) 100,00 %
13.10.2015 23:40 4,9 C 94 % 1012,8 hPa 0,0 l/m 3,4 km/h (1 Bft) N-NO 28 0 min 0,000 mm 0,0 UV-I 0 W/m 4,0 C 4,9 C 6,4 km/h (2 Bft) 100,00 %
13.10.2015 23:42 4,9 C 94 % 1012,8 hPa 0,0 l/m 4,3 km/h (1 Bft) N-NO 25 0 min 0,000 mm 0,0 UV-I 0 W/m 4,0 C 4,9 C 6,4 km/h (2 Bft) 97,87 %
13.10.2015 23:44 4,9 C 94 % 1012,8 hPa 0,0 l/m 4,0 km/h (1 Bft) N 9 0 min 0,000 mm 0,0 UV-I 0 W/m 4,0 C 4,9 C 8,0 km/h (2 Bft) 100,00 %
13.10.2015 23:46 4,9 C 94 % 1012,8 hPa 0,0 l/m 3,1 km/h (1 Bft) N-NO 13 0 min 0,000 mm 0,0 UV-I 0 W/m 4,0 C 4,9 C 4,8 km/h (1 Bft) 96,00 %
13.10.2015 23:48 4,9 C 94 % 1012,9 hPa 0,0 l/m 2,7 km/h (1 Bft) O-NO 68 0 min 0,000 mm 0,0 UV-I 0 W/m 4,0 C 4,9 C 4,8 km/h (1 Bft) 100,00 %
13.10.2015 23:50 4,9 C 94 % 1012,7 hPa 0,0 l/m 2,2 km/h (1 Bft) O-NO 73 0 min 0,000 mm 0,0 UV-I 0 W/m 4,0 C 4,9 C 4,8 km/h (1 Bft) 100,00 %
13.10.2015 23:52 4,9 C 94 % 1012,7 hPa 0,0 l/m 2,1 km/h (1 Bft) NO 55 0 min 0,000 mm 0,0 UV-I 0 W/m 4,0 C 4,9 C 4,8 km/h (1 Bft) 98,00 %
13.10.2015 23:54 4,8 C 94 % 1012,8 hPa 0,0 l/m 2,6 km/h (1 Bft) N-NO 28 0 min 0,000 mm 0,0 UV-I 0 W/m 3,9 C 4,8 C 4,8 km/h (1 Bft) 100,00 %
13.10.2015 23:56 4,8 C 94 % 1012,8 hPa 0,0 l/m 1,2 km/h (1 Bft) N-NO 32 0 min 0,000 mm 0,0 UV-I 0 W/m 3,9 C 4,8 C 4,8 km/h (1 Bft) 100,00 %
13.10.2015 23:58 4,8 C 94 % 1012,7 hPa 0,0 l/m 2,7 km/h (1 Bft) N-NO 24 0 min 0,000 mm 0,0 UV-I 0 W/m 3,9 C 4,8 C 4,8 km/h (1 Bft) 100,00 %
_ Min-Zeit 00:02 14:18 14:33 - 08:32 - - - - - - 03:52 02:57 08:32 00:02
Minimum _ 0,0 C 76 % 1012,6 hPa - 0,0 km/h (0 Bft) - - - - - - -2,4 C -7,5 C 0,0 km/h (0 Bft) 0,00 %
_ Max-Zeit 14:33 22:34 09:23 00:02 01:52 - - 13:38 00:02 09:03 14:03 23:08 15:13 02:17 20:37
Maximum _ 5,6 C 95 % 1016,1 hPa 0,0 l/m 18,0 km/h
O-SO (3 Bft)
- - 5 min 0,000 mm 1,0 UV-I 523 W/m 4,3 C 5,3 C 28,1 km/h
O-SO (4 Bft)
100,00 %
Durchschnitt _ 2,8 C 85 % 1014,5 hPa #0,0 l/m 7,3 km/h (2 Bft) O - #1:10 h #0,000 mm 1,0 UV-I 163 W/m 0,5 C 1,1 C 11,4 km/h (2 Bft) 20,72 %